sensor_id;sensor_type;location;lat;lon;timestamp;temperature;humidity
29003;DHT22;16102;57.138;-2.118;2023-02-11T00:00:43;11.20;1.00
29003;DHT22;16102;57.138;-2.118;2023-02-11T00:03:09;11.20;1.00
29003;DHT22;16102;57.138;-2.118;2023-02-11T00:05:40;11.20;1.00
29003;DHT22;16102;57.138;-2.118;2023-02-11T00:08:10;11.20;1.00
29003;DHT22;16102;57.138;-2.118;2023-02-11T00:10:42;11.30;1.00
29003;DHT22;16102;57.138;-2.118;2023-02-11T00:13:12;11.20;1.00
29003;DHT22;16102;57.138;-2.118;2023-02-11T00:15:39;11.30;1.00
29003;DHT22;16102;57.138;-2.118;2023-02-11T00:18:05;11.20;1.00
29003;DHT22;16102;57.138;-2.118;2023-02-11T00:20:32;11.30;1.00
29003;DHT22;16102;57.138;-2.118;2023-02-11T00:22:59;11.40;1.00
29003;DHT22;16102;57.138;-2.118;2023-02-11T00:25:26;11.40;1.00
29003;DHT22;16102;57.138;-2.118;2023-02-11T00:27:53;11.40;1.00
29003;DHT22;16102;57.138;-2.118;2023-02-11T00:30:20;11.50;1.00
29003;DHT22;16102;57.138;-2.118;2023-02-11T00:32:47;11.50;1.00
29003;DHT22;16102;57.138;-2.118;2023-02-11T00:35:14;11.50;1.00
29003;DHT22;16102;57.138;-2.118;2023-02-11T00:37:41;11.60;1.00
29003;DHT22;16102;57.138;-2.118;2023-02-11T00:40:09;11.60;1.00
29003;DHT22;16102;57.138;-2.118;2023-02-11T00:42:36;11.60;1.00
29003;DHT22;16102;57.138;-2.118;2023-02-11T00:45:03;11.60;1.00
29003;DHT22;16102;57.138;-2.118;2023-02-11T00:47:30;11.60;1.00
29003;DHT22;16102;57.138;-2.118;2023-02-11T00:49:57;11.50;1.00
29003;DHT22;16102;57.138;-2.118;2023-02-11T00:52:26;11.40;1.00
29003;DHT22;16102;57.138;-2.118;2023-02-11T00:54:53;11.40;1.00
29003;DHT22;16102;57.138;-2.118;2023-02-11T00:57:20;11.30;1.00
29003;DHT22;16102;57.138;-2.118;2023-02-11T00:59:47;11.30;1.00
29003;DHT22;16102;57.138;-2.118;2023-02-11T01:02:14;11.20;1.00
29003;DHT22;16102;57.138;-2.118;2023-02-11T01:04:41;11.20;1.00
29003;DHT22;16102;57.138;-2.118;2023-02-11T01:07:08;11.20;1.00
29003;DHT22;16102;57.138;-2.118;2023-02-11T01:09:37;11.20;1.00
29003;DHT22;16102;57.138;-2.118;2023-02-11T01:12:04;11.20;1.00
29003;DHT22;16102;57.138;-2.118;2023-02-11T01:14:31;11.20;1.00
29003;DHT22;16102;57.138;-2.118;2023-02-11T01:16:58;11.20;1.00
29003;DHT22;16102;57.138;-2.118;2023-02-11T01:19:25;11.20;1.00
29003;DHT22;16102;57.138;-2.118;2023-02-11T01:21:52;11.10;1.00
29003;DHT22;16102;57.138;-2.118;2023-02-11T01:24:19;11.10;1.00
29003;DHT22;16102;57.138;-2.118;2023-02-11T01:26:46;11.10;1.00
29003;DHT22;16102;57.138;-2.118;2023-02-11T01:29:12;11.10;1.00
29003;DHT22;16102;57.138;-2.118;2023-02-11T01:31:39;11.10;1.00
29003;DHT22;16102;57.138;-2.118;2023-02-11T01:34:06;11.00;1.00
29003;DHT22;16102;57.138;-2.118;2023-02-11T01:36:33;11.10;1.00
29003;DHT22;16102;57.138;-2.118;2023-02-11T01:39:00;11.00;1.00
29003;DHT22;16102;57.138;-2.118;2023-02-11T01:41:27;11.00;1.00
29003;DHT22;16102;57.138;-2.118;2023-02-11T01:43:54;11.00;1.00
29003;DHT22;16102;57.138;-2.118;2023-02-11T01:46:34;11.00;1.00
29003;DHT22;16102;57.138;-2.118;2023-02-11T01:49:14;10.90;1.00
29003;DHT22;16102;57.138;-2.118;2023-02-11T01:52:04;10.80;1.00
29003;DHT22;16102;57.138;-2.118;2023-02-11T01:54:36;10.80;1.00
29003;DHT22;16102;57.138;-2.118;2023-02-11T01:57:28;10.80;1.00
29003;DHT22;16102;57.138;-2.118;2023-02-11T02:00:13;10.90;1.00
29003;DHT22;16102;57.138;-2.118;2023-02-11T02:03:04;11.00;1.00
29003;DHT22;16102;57.138;-2.118;2023-02-11T02:08:46;11.10;1.00
29003;DHT22;16102;57.138;-2.118;2023-02-11T02:11:16;11.10;1.00
29003;DHT22;16102;57.138;-2.118;2023-02-11T02:13:43;11.10;1.00
29003;DHT22;16102;57.138;-2.118;2023-02-11T02:16:13;11.20;1.00
29003;DHT22;16102;57.138;-2.118;2023-02-11T02:25:34;11.20;1.00
29003;DHT22;16102;57.138;-2.118;2023-02-11T02:33:28;11.10;1.00
29003;DHT22;16102;57.138;-2.118;2023-02-11T02:41:10;10.80;1.00
29003;DHT22;16102;57.138;-2.118;2023-02-11T02:43:44;10.70;1.00
29003;DHT22;16102;57.138;-2.118;2023-02-11T02:46:19;10.70;1.00
29003;DHT22;16102;57.138;-2.118;2023-02-11T02:48:48;10.60;1.00
29003;DHT22;16102;57.138;-2.118;2023-02-11T03:05:26;10.40;1.00
29003;DHT22;16102;57.138;-2.118;2023-02-11T03:08:05;10.30;1.00
29003;DHT22;16102;57.138;-2.118;2023-02-11T03:10:41;10.30;1.00
29003;DHT22;16102;57.138;-2.118;2023-02-11T03:13:09;10.20;1.00
29003;DHT22;16102;57.138;-2.118;2023-02-11T03:15:41;10.20;1.00
29003;DHT22;16102;57.138;-2.118;2023-02-11T03:18:12;10.10;1.00
29003;DHT22;16102;57.138;-2.118;2023-02-11T03:20:42;10.10;1.00
29003;DHT22;16102;57.138;-2.118;2023-02-11T03:26:56;10.10;1.00
29003;DHT22;16102;57.138;-2.118;2023-02-11T03:29:42;10.10;1.00
29003;DHT22;16102;57.138;-2.118;2023-02-11T03:37:44;10.20;1.00
29003;DHT22;16102;57.138;-2.118;2023-02-11T03:40:22;10.50;1.00
29003;DHT22;16102;57.138;-2.118;2023-02-11T03:43:02;10.60;1.00
29003;DHT22;16102;57.138;-2.118;2023-02-11T03:45:31;10.80;1.00
29003;DHT22;16102;57.138;-2.118;2023-02-11T03:48:15;10.80;1.00
29003;DHT22;16102;57.138;-2.118;2023-02-11T03:50:43;10.80;1.00
29003;DHT22;16102;57.138;-2.118;2023-02-11T03:53:11;10.80;1.00
29003;DHT22;16102;57.138;-2.118;2023-02-11T03:55:40;10.80;1.00
29003;DHT22;16102;57.138;-2.118;2023-02-11T03:58:08;10.80;1.00
29003;DHT22;16102;57.138;-2.118;2023-02-11T04:00:38;10.80;1.00
29003;DHT22;16102;57.138;-2.118;2023-02-11T04:03:07;10.70;1.00
29003;DHT22;16102;57.138;-2.118;2023-02-11T04:05:35;10.70;1.00
29003;DHT22;16102;57.138;-2.118;2023-02-11T04:08:03;10.70;1.00
29003;DHT22;16102;57.138;-2.118;2023-02-11T04:10:30;10.70;1.00
29003;DHT22;16102;57.138;-2.118;2023-02-11T04:12:57;10.70;1.00
29003;DHT22;16102;57.138;-2.118;2023-02-11T04:15:24;10.70;1.00
29003;DHT22;16102;57.138;-2.118;2023-02-11T04:17:51;10.80;1.00
29003;DHT22;16102;57.138;-2.118;2023-02-11T04:20:18;10.80;1.00
29003;DHT22;16102;57.138;-2.118;2023-02-11T04:22:45;10.80;1.00
29003;DHT22;16102;57.138;-2.118;2023-02-11T04:25:12;10.90;1.00
29003;DHT22;16102;57.138;-2.118;2023-02-11T04:27:39;10.90;1.00
29003;DHT22;16102;57.138;-2.118;2023-02-11T04:30:07;10.90;1.00
29003;DHT22;16102;57.138;-2.118;2023-02-11T04:32:34;10.90;1.00
29003;DHT22;16102;57.138;-2.118;2023-02-11T04:35:01;10.90;1.00
29003;DHT22;16102;57.138;-2.118;2023-02-11T04:37:29;10.80;1.00
29003;DHT22;16102;57.138;-2.118;2023-02-11T04:39:57;10.90;1.00
29003;DHT22;16102;57.138;-2.118;2023-02-11T04:42:24;10.90;1.00
29003;DHT22;16102;57.138;-2.118;2023-02-11T04:44:51;10.80;1.00
29003;DHT22;16102;57.138;-2.118;2023-02-11T04:47:18;10.70;1.00
29003;DHT22;16102;57.138;-2.118;2023-02-11T04:49:45;10.60;1.00
29003;DHT22;16102;57.138;-2.118;2023-02-11T04:52:11;10.50;1.00
29003;DHT22;16102;57.138;-2.118;2023-02-11T04:54:38;10.40;1.00
29003;DHT22;16102;57.138;-2.118;2023-02-11T04:57:06;10.30;1.00
29003;DHT22;16102;57.138;-2.118;2023-02-11T04:59:33;10.30;1.00
29003;DHT22;16102;57.138;-2.118;2023-02-11T05:01:59;10.30;1.00
29003;DHT22;16102;57.138;-2.118;2023-02-11T05:04:26;10.40;1.00
29003;DHT22;16102;57.138;-2.118;2023-02-11T05:06:53;10.50;1.00
29003;DHT22;16102;57.138;-2.118;2023-02-11T05:09:23;10.50;1.00
29003;DHT22;16102;57.138;-2.118;2023-02-11T05:11:50;10.50;1.00
29003;DHT22;16102;57.138;-2.118;2023-02-11T05:14:18;10.50;1.00
29003;DHT22;16102;57.138;-2.118;2023-02-11T05:16:45;10.50;1.00
29003;DHT22;16102;57.138;-2.118;2023-02-11T05:19:12;10.50;1.00
29003;DHT22;16102;57.138;-2.118;2023-02-11T05:21:39;10.40;1.00
29003;DHT22;16102;57.138;-2.118;2023-02-11T05:24:19;10.30;1.00
29003;DHT22;16102;57.138;-2.118;2023-02-11T05:26:46;10.20;1.00
29003;DHT22;16102;57.138;-2.118;2023-02-11T05:29:13;10.20;1.00
29003;DHT22;16102;57.138;-2.118;2023-02-11T05:31:40;10.10;1.00
29003;DHT22;16102;57.138;-2.118;2023-02-11T05:34:07;10.10;1.00
29003;DHT22;16102;57.138;-2.118;2023-02-11T05:36:34;10.10;1.00
29003;DHT22;16102;57.138;-2.118;2023-02-11T05:39:02;10.10;1.00
29003;DHT22;16102;57.138;-2.118;2023-02-11T05:41:29;10.00;1.00
29003;DHT22;16102;57.138;-2.118;2023-02-11T05:43:56;9.90;1.00
29003;DHT22;16102;57.138;-2.118;2023-02-11T05:46:23;9.90;1.00
29003;DHT22;16102;57.138;-2.118;2023-02-11T05:48:50;9.80;1.00
29003;DHT22;16102;57.138;-2.118;2023-02-11T05:51:17;9.80;1.00
29003;DHT22;16102;57.138;-2.118;2023-02-11T05:53:44;9.80;1.00
29003;DHT22;16102;57.138;-2.118;2023-02-11T05:56:11;9.70;1.00
29003;DHT22;16102;57.138;-2.118;2023-02-11T05:58:40;9.80;1.00
29003;DHT22;16102;57.138;-2.118;2023-02-11T06:01:07;9.80;1.00
29003;DHT22;16102;57.138;-2.118;2023-02-11T06:03:34;9.80;1.00
29003;DHT22;16102;57.138;-2.118;2023-02-11T06:06:01;9.80;1.00
29003;DHT22;16102;57.138;-2.118;2023-02-11T06:08:28;9.80;1.00
29003;DHT22;16102;57.138;-2.118;2023-02-11T06:10:55;9.90;1.00
29003;DHT22;16102;57.138;-2.118;2023-02-11T06:13:22;9.90;1.00
29003;DHT22;16102;57.138;-2.118;2023-02-11T06:15:59;10.00;1.00
29003;DHT22;16102;57.138;-2.118;2023-02-11T06:18:27;10.30;1.00
29003;DHT22;16102;57.138;-2.118;2023-02-11T06:20:55;10.50;1.00
29003;DHT22;16102;57.138;-2.118;2023-02-11T06:23:22;10.70;1.00
29003;DHT22;16102;57.138;-2.118;2023-02-11T06:25:49;10.70;1.00
29003;DHT22;16102;57.138;-2.118;2023-02-11T06:28:17;10.70;1.00
29003;DHT22;16102;57.138;-2.118;2023-02-11T06:30:45;10.70;1.00
29003;DHT22;16102;57.138;-2.118;2023-02-11T06:33:12;10.70;1.00
29003;DHT22;16102;57.138;-2.118;2023-02-11T06:35:39;10.60;1.00
29003;DHT22;16102;57.138;-2.118;2023-02-11T06:38:06;10.50;1.00
29003;DHT22;16102;57.138;-2.118;2023-02-11T06:40:33;10.40;1.00
29003;DHT22;16102;57.138;-2.118;2023-02-11T06:43:00;10.30;1.00
29003;DHT22;16102;57.138;-2.118;2023-02-11T06:45:27;10.30;1.00
29003;DHT22;16102;57.138;-2.118;2023-02-11T06:47:54;10.20;1.00
29003;DHT22;16102;57.138;-2.118;2023-02-11T06:50:21;10.20;1.00
29003;DHT22;16102;57.138;-2.118;2023-02-11T06:52:48;10.20;1.00
29003;DHT22;16102;57.138;-2.118;2023-02-11T06:55:15;10.20;1.00
29003;DHT22;16102;57.138;-2.118;2023-02-11T06:57:42;10.10;1.00
29003;DHT22;16102;57.138;-2.118;2023-02-11T07:00:10;10.10;1.00
29003;DHT22;16102;57.138;-2.118;2023-02-11T07:02:37;10.20;1.00
29003;DHT22;16102;57.138;-2.118;2023-02-11T07:05:05;10.10;1.00
29003;DHT22;16102;57.138;-2.118;2023-02-11T07:07:33;10.00;1.00
29003;DHT22;16102;57.138;-2.118;2023-02-11T07:10:00;9.90;1.00
29003;DHT22;16102;57.138;-2.118;2023-02-11T07:12:30;9.80;1.00
29003;DHT22;16102;57.138;-2.118;2023-02-11T07:14:57;9.70;1.00
29003;DHT22;16102;57.138;-2.118;2023-02-11T07:17:24;9.60;1.00
29003;DHT22;16102;57.138;-2.118;2023-02-11T07:19:51;9.50;1.00
29003;DHT22;16102;57.138;-2.118;2023-02-11T07:22:18;9.40;1.00
29003;DHT22;16102;57.138;-2.118;2023-02-11T07:24:45;9.40;1.00
29003;DHT22;16102;57.138;-2.118;2023-02-11T07:27:12;9.30;1.00
29003;DHT22;16102;57.138;-2.118;2023-02-11T07:29:40;9.30;1.00
29003;DHT22;16102;57.138;-2.118;2023-02-11T07:32:07;9.30;1.00
29003;DHT22;16102;57.138;-2.118;2023-02-11T07:34:34;9.30;1.00
29003;DHT22;16102;57.138;-2.118;2023-02-11T07:37:01;9.30;1.00
29003;DHT22;16102;57.138;-2.118;2023-02-11T07:39:28;9.30;1.00
29003;DHT22;16102;57.138;-2.118;2023-02-11T07:41:55;9.20;1.00
29003;DHT22;16102;57.138;-2.118;2023-02-11T07:44:22;9.20;1.00
29003;DHT22;16102;57.138;-2.118;2023-02-11T07:46:49;9.20;1.00
29003;DHT22;16102;57.138;-2.118;2023-02-11T07:49:16;9.20;1.00
29003;DHT22;16102;57.138;-2.118;2023-02-11T07:51:43;9.10;1.00
29003;DHT22;16102;57.138;-2.118;2023-02-11T07:54:10;9.10;1.00
29003;DHT22;16102;57.138;-2.118;2023-02-11T07:56:37;9.10;1.00
29003;DHT22;16102;57.138;-2.118;2023-02-11T07:59:04;9.10;1.00
29003;DHT22;16102;57.138;-2.118;2023-02-11T08:01:32;9.00;1.00
29003;DHT22;16102;57.138;-2.118;2023-02-11T08:04:00;9.10;1.00
29003;DHT22;16102;57.138;-2.118;2023-02-11T08:06:30;9.00;1.00
29003;DHT22;16102;57.138;-2.118;2023-02-11T08:09:02;9.10;1.00
29003;DHT22;16102;57.138;-2.118;2023-02-11T08:11:29;9.00;1.00
29003;DHT22;16102;57.138;-2.118;2023-02-11T08:13:56;9.00;1.00
29003;DHT22;16102;57.138;-2.118;2023-02-11T08:16:26;9.00;1.00
29003;DHT22;16102;57.138;-2.118;2023-02-11T08:18:56;9.00;1.00
29003;DHT22;16102;57.138;-2.118;2023-02-11T08:21:23;8.90;1.00
29003;DHT22;16102;57.138;-2.118;2023-02-11T08:23:51;8.90;1.00
29003;DHT22;16102;57.138;-2.118;2023-02-11T08:26:27;8.90;1.00
29003;DHT22;16102;57.138;-2.118;2023-02-11T08:28:55;8.90;1.00
29003;DHT22;16102;57.138;-2.118;2023-02-11T08:31:33;8.80;1.00
29003;DHT22;16102;57.138;-2.118;2023-02-11T08:34:00;8.80;1.00
29003;DHT22;16102;57.138;-2.118;2023-02-11T08:36:33;8.80;1.00
29003;DHT22;16102;57.138;-2.118;2023-02-11T08:39:02;8.80;1.00
29003;DHT22;16102;57.138;-2.118;2023-02-11T08:41:49;8.80;1.00
29003;DHT22;16102;57.138;-2.118;2023-02-11T08:44:18;8.80;1.00
29003;DHT22;16102;57.138;-2.118;2023-02-11T08:46:45;8.70;1.00
29003;DHT22;16102;57.138;-2.118;2023-02-11T08:49:13;8.80;1.00
29003;DHT22;16102;57.138;-2.118;2023-02-11T08:51:40;8.90;1.00
29003;DHT22;16102;57.138;-2.118;2023-02-11T08:54:07;8.90;1.00
29003;DHT22;16102;57.138;-2.118;2023-02-11T08:56:36;9.00;1.00
29003;DHT22;16102;57.138;-2.118;2023-02-11T08:59:04;9.10;1.00
29003;DHT22;16102;57.138;-2.118;2023-02-11T09:01:31;9.10;1.00
29003;DHT22;16102;57.138;-2.118;2023-02-11T09:03:59;9.20;1.00
29003;DHT22;16102;57.138;-2.118;2023-02-11T09:06:27;9.40;1.00
29003;DHT22;16102;57.138;-2.118;2023-02-11T09:08:55;9.50;1.00
29003;DHT22;16102;57.138;-2.118;2023-02-11T09:11:42;9.50;1.00
29003;DHT22;16102;57.138;-2.118;2023-02-11T09:14:19;9.50;1.00
29003;DHT22;16102;57.138;-2.118;2023-02-11T09:16:47;9.60;1.00
29003;DHT22;16102;57.138;-2.118;2023-02-11T09:19:15;9.70;1.00
29003;DHT22;16102;57.138;-2.118;2023-02-11T09:21:42;9.70;1.00
29003;DHT22;16102;57.138;-2.118;2023-02-11T09:24:09;9.70;1.00
29003;DHT22;16102;57.138;-2.118;2023-02-11T09:26:41;9.70;1.00
29003;DHT22;16102;57.138;-2.118;2023-02-11T09:29:08;9.80;1.00
29003;DHT22;16102;57.138;-2.118;2023-02-11T09:31:35;9.80;1.00
29003;DHT22;16102;57.138;-2.118;2023-02-11T09:34:05;9.80;1.00
29003;DHT22;16102;57.138;-2.118;2023-02-11T09:36:34;9.80;1.00
29003;DHT22;16102;57.138;-2.118;2023-02-11T09:39:08;9.80;1.00
29003;DHT22;16102;57.138;-2.118;2023-02-11T09:44:23;9.80;1.00
29003;DHT22;16102;57.138;-2.118;2023-02-11T09:46:57;9.90;1.00
29003;DHT22;16102;57.138;-2.118;2023-02-11T09:49:39;9.90;1.00
29003;DHT22;16102;57.138;-2.118;2023-02-11T09:52:18;9.90;1.00
29003;DHT22;16102;57.138;-2.118;2023-02-11T09:54:58;9.90;1.00
29003;DHT22;16102;57.138;-2.118;2023-02-11T09:57:33;10.00;1.00
29003;DHT22;16102;57.138;-2.118;2023-02-11T10:00:06;10.00;1.00
29003;DHT22;16102;57.138;-2.118;2023-02-11T10:23:40;11.00;1.00
29003;DHT22;16102;57.138;-2.118;2023-02-11T10:26:18;11.00;1.00
29003;DHT22;16102;57.138;-2.118;2023-02-11T10:28:48;11.20;1.00
29003;DHT22;16102;57.138;-2.118;2023-02-11T10:31:49;11.30;1.00
29003;DHT22;16102;57.138;-2.118;2023-02-11T10:34:16;11.40;1.00
29003;DHT22;16102;57.138;-2.118;2023-02-11T10:36:43;11.60;1.00
29003;DHT22;16102;57.138;-2.118;2023-02-11T10:39:19;11.70;1.00
29003;DHT22;16102;57.138;-2.118;2023-02-11T10:41:51;11.70;1.00
29003;DHT22;16102;57.138;-2.118;2023-02-11T10:46:52;12.00;1.00
29003;DHT22;16102;57.138;-2.118;2023-02-11T10:49:40;12.10;1.00
29003;DHT22;16102;57.138;-2.118;2023-02-11T10:52:27;12.20;1.00
29003;DHT22;16102;57.138;-2.118;2023-02-11T10:55:08;12.30;1.00
29003;DHT22;16102;57.138;-2.118;2023-02-11T10:57:54;12.40;1.00
29003;DHT22;16102;57.138;-2.118;2023-02-11T11:02:59;12.40;1.00
29003;DHT22;16102;57.138;-2.118;2023-02-11T11:05:36;12.40;1.00
29003;DHT22;16102;57.138;-2.118;2023-02-11T11:08:11;12.50;1.00
29003;DHT22;16102;57.138;-2.118;2023-02-11T11:11:14;12.50;1.00
29003;DHT22;16102;57.138;-2.118;2023-02-11T11:13:57;12.50;1.00
29003;DHT22;16102;57.138;-2.118;2023-02-11T11:16:31;12.50;1.00
29003;DHT22;16102;57.138;-2.118;2023-02-11T11:26:45;13.60;1.00
29003;DHT22;16102;57.138;-2.118;2023-02-11T11:29:22;14.20;1.00
29003;DHT22;16102;57.138;-2.118;2023-02-11T11:32:19;14.40;1.00
29003;DHT22;16102;57.138;-2.118;2023-02-11T11:34:55;15.00;1.00
29003;DHT22;16102;57.138;-2.118;2023-02-11T11:37:34;15.10;1.00
29003;DHT22;16102;57.138;-2.118;2023-02-11T11:40:08;14.90;1.00
29003;DHT22;16102;57.138;-2.118;2023-02-11T11:42:37;15.50;1.00
29003;DHT22;16102;57.138;-2.118;2023-02-11T11:48:09;15.60;1.00
29003;DHT22;16102;57.138;-2.118;2023-02-11T11:51:04;16.20;1.00
29003;DHT22;16102;57.138;-2.118;2023-02-11T11:56:13;16.70;99.90
29003;DHT22;16102;57.138;-2.118;2023-02-11T11:58:42;16.00;99.90
29003;DHT22;16102;57.138;-2.118;2023-02-11T12:01:40;15.00;99.90
29003;DHT22;16102;57.138;-2.118;2023-02-11T12:12:57;15.50;99.90
29003;DHT22;16102;57.138;-2.118;2023-02-11T12:26:16;16.70;99.90
29003;DHT22;16102;57.138;-2.118;2023-02-11T12:29:02;16.60;99.90
29003;DHT22;16102;57.138;-2.118;2023-02-11T12:37:24;18.20;99.90
29003;DHT22;16102;57.138;-2.118;2023-02-11T12:40:21;17.70;99.90
29003;DHT22;16102;57.138;-2.118;2023-02-11T12:57:16;19.80;99.90
29003;DHT22;16102;57.138;-2.118;2023-02-11T13:02:46;22.30;99.90
29003;DHT22;16102;57.138;-2.118;2023-02-11T13:05:38;21.60;99.90
29003;DHT22;16102;57.138;-2.118;2023-02-11T13:10:52;20.80;99.90
29003;DHT22;16102;57.138;-2.118;2023-02-11T13:13:24;23.00;99.90
29003;DHT22;16102;57.138;-2.118;2023-02-11T13:16:02;22.20;99.90
29003;DHT22;16102;57.138;-2.118;2023-02-11T13:18:42;21.70;99.90
29003;DHT22;16102;57.138;-2.118;2023-02-11T13:23:52;23.70;99.90
29003;DHT22;16102;57.138;-2.118;2023-02-11T13:26:44;23.90;99.90
29003;DHT22;16102;57.138;-2.118;2023-02-11T13:29:35;25.20;99.90
29003;DHT22;16102;57.138;-2.118;2023-02-11T13:32:12;26.00;99.90
29003;DHT22;16102;57.138;-2.118;2023-02-11T13:40:04;22.90;99.90
29003;DHT22;16102;57.138;-2.118;2023-02-11T13:42:33;23.00;99.90
29003;DHT22;16102;57.138;-2.118;2023-02-11T13:45:47;20.90;99.90
29003;DHT22;16102;57.138;-2.118;2023-02-11T13:48:24;20.60;99.90
29003;DHT22;16102;57.138;-2.118;2023-02-11T13:50:58;21.00;99.90
29003;DHT22;16102;57.138;-2.118;2023-02-11T13:53:27;22.10;99.90
29003;DHT22;16102;57.138;-2.118;2023-02-11T13:56:08;21.20;99.90
29003;DHT22;16102;57.138;-2.118;2023-02-11T13:58:56;21.90;99.90
29003;DHT22;16102;57.138;-2.118;2023-02-11T14:04:33;22.10;99.90
29003;DHT22;16102;57.138;-2.118;2023-02-11T14:13:32;21.20;99.90
29003;DHT22;16102;57.138;-2.118;2023-02-11T14:35:54;22.60;99.90
29003;DHT22;16102;57.138;-2.118;2023-02-11T14:40:52;22.40;99.90
29003;DHT22;16102;57.138;-2.118;2023-02-11T14:43:39;23.30;99.90
29003;DHT22;16102;57.138;-2.118;2023-02-11T14:46:07;22.50;99.90
29003;DHT22;16102;57.138;-2.118;2023-02-11T14:48:37;22.00;99.90
29003;DHT22;16102;57.138;-2.118;2023-02-11T14:51:30;21.80;99.90
29003;DHT22;16102;57.138;-2.118;2023-02-11T14:54:08;21.80;99.90
29003;DHT22;16102;57.138;-2.118;2023-02-11T14:56:39;22.70;99.90
29003;DHT22;16102;57.138;-2.118;2023-02-11T14:59:18;21.10;99.90
29003;DHT22;16102;57.138;-2.118;2023-02-11T15:01:52;21.90;99.90
29003;DHT22;16102;57.138;-2.118;2023-02-11T15:04:31;22.00;99.90
29003;DHT22;16102;57.138;-2.118;2023-02-11T15:07:02;21.60;99.90
29003;DHT22;16102;57.138;-2.118;2023-02-11T15:09:36;20.80;99.90
29003;DHT22;16102;57.138;-2.118;2023-02-11T15:12:35;21.20;99.90
29003;DHT22;16102;57.138;-2.118;2023-02-11T15:15:02;20.50;99.90
29003;DHT22;16102;57.138;-2.118;2023-02-11T15:17:30;21.00;99.90
29003;DHT22;16102;57.138;-2.118;2023-02-11T15:19:59;20.70;99.90
29003;DHT22;16102;57.138;-2.118;2023-02-11T15:22:31;20.80;99.90
29003;DHT22;16102;57.138;-2.118;2023-02-11T15:27:42;19.30;99.90
29003;DHT22;16102;57.138;-2.118;2023-02-11T15:32:57;17.70;99.90
29003;DHT22;16102;57.138;-2.118;2023-02-11T15:35:27;17.70;99.90
29003;DHT22;16102;57.138;-2.118;2023-02-11T15:37:56;17.90;99.90
29003;DHT22;16102;57.138;-2.118;2023-02-11T15:40:25;18.30;99.90
29003;DHT22;16102;57.138;-2.118;2023-02-11T15:42:57;18.00;99.90
29003;DHT22;16102;57.138;-2.118;2023-02-11T15:45:25;17.10;99.90
29003;DHT22;16102;57.138;-2.118;2023-02-11T15:48:08;16.70;99.90
29003;DHT22;16102;57.138;-2.118;2023-02-11T15:50:37;16.80;99.90
29003;DHT22;16102;57.138;-2.118;2023-02-11T15:53:28;17.10;99.90
29003;DHT22;16102;57.138;-2.118;2023-02-11T15:58:35;16.50;99.90
29003;DHT22;16102;57.138;-2.118;2023-02-11T16:01:03;16.50;99.90
29003;DHT22;16102;57.138;-2.118;2023-02-11T16:03:30;15.80;99.90
29003;DHT22;16102;57.138;-2.118;2023-02-11T16:06:16;16.10;99.90
29003;DHT22;16102;57.138;-2.118;2023-02-11T16:08:56;16.20;99.90
29003;DHT22;16102;57.138;-2.118;2023-02-11T16:11:30;16.10;99.90
29003;DHT22;16102;57.138;-2.118;2023-02-11T16:13:58;15.70;99.90
29003;DHT22;16102;57.138;-2.118;2023-02-11T16:16:28;14.80;99.90
29003;DHT22;16102;57.138;-2.118;2023-02-11T16:18:59;14.80;99.90
29003;DHT22;16102;57.138;-2.118;2023-02-11T16:21:40;14.70;99.90
29003;DHT22;16102;57.138;-2.118;2023-02-11T16:24:25;14.70;99.90
29003;DHT22;16102;57.138;-2.118;2023-02-11T16:27:00;14.50;99.90
29003;DHT22;16102;57.138;-2.118;2023-02-11T16:29:30;14.40;99.90
29003;DHT22;16102;57.138;-2.118;2023-02-11T16:32:13;14.30;99.90
29003;DHT22;16102;57.138;-2.118;2023-02-11T16:34:41;14.30;99.90
29003;DHT22;16102;57.138;-2.118;2023-02-11T16:37:09;14.30;99.90
29003;DHT22;16102;57.138;-2.118;2023-02-11T16:39:36;14.00;99.90
29003;DHT22;16102;57.138;-2.118;2023-02-11T16:42:04;14.20;99.90
29003;DHT22;16102;57.138;-2.118;2023-02-11T16:44:33;14.10;99.90
29003;DHT22;16102;57.138;-2.118;2023-02-11T16:47:02;14.10;99.90
29003;DHT22;16102;57.138;-2.118;2023-02-11T16:49:33;14.20;99.90
29003;DHT22;16102;57.138;-2.118;2023-02-11T16:52:05;14.40;99.90
29003;DHT22;16102;57.138;-2.118;2023-02-11T16:54:32;14.40;99.90
29003;DHT22;16102;57.138;-2.118;2023-02-11T16:57:00;14.50;99.90
29003;DHT22;16102;57.138;-2.118;2023-02-11T16:59:28;14.70;99.90
29003;DHT22;16102;57.138;-2.118;2023-02-11T17:01:56;14.70;99.90
29003;DHT22;16102;57.138;-2.118;2023-02-11T17:04:26;14.50;99.90
29003;DHT22;16102;57.138;-2.118;2023-02-11T17:06:54;14.40;99.90
29003;DHT22;16102;57.138;-2.118;2023-02-11T17:09:25;14.50;99.90
29003;DHT22;16102;57.138;-2.118;2023-02-11T17:11:56;14.50;99.90
29003;DHT22;16102;57.138;-2.118;2023-02-11T17:14:23;14.60;99.90
29003;DHT22;16102;57.138;-2.118;2023-02-11T17:16:50;14.70;99.90
29003;DHT22;16102;57.138;-2.118;2023-02-11T17:19:18;14.70;99.90
29003;DHT22;16102;57.138;-2.118;2023-02-11T17:21:49;14.70;99.90
29003;DHT22;16102;57.138;-2.118;2023-02-11T17:24:16;14.60;99.90
29003;DHT22;16102;57.138;-2.118;2023-02-11T17:26:44;14.70;99.90
29003;DHT22;16102;57.138;-2.118;2023-02-11T17:29:17;14.70;99.90
29003;DHT22;16102;57.138;-2.118;2023-02-11T17:31:45;14.50;99.90
29003;DHT22;16102;57.138;-2.118;2023-02-11T17:34:12;14.50;99.90
29003;DHT22;16102;57.138;-2.118;2023-02-11T17:36:39;14.50;99.90
29003;DHT22;16102;57.138;-2.118;2023-02-11T17:39:07;14.60;99.90
29003;DHT22;16102;57.138;-2.118;2023-02-11T17:41:35;14.70;99.90
29003;DHT22;16102;57.138;-2.118;2023-02-11T17:44:03;14.60;99.90
29003;DHT22;16102;57.138;-2.118;2023-02-11T17:46:30;14.50;99.90
29003;DHT22;16102;57.138;-2.118;2023-02-11T17:48:58;14.40;99.90
29003;DHT22;16102;57.138;-2.118;2023-02-11T17:51:31;14.40;99.90
29003;DHT22;16102;57.138;-2.118;2023-02-11T17:54:00;14.30;99.90
29003;DHT22;16102;57.138;-2.118;2023-02-11T17:56:30;14.20;99.90
29003;DHT22;16102;57.138;-2.118;2023-02-11T17:58:57;14.20;99.90
29003;DHT22;16102;57.138;-2.118;2023-02-11T18:01:28;14.30;99.90
29003;DHT22;16102;57.138;-2.118;2023-02-11T18:03:55;14.40;99.90
29003;DHT22;16102;57.138;-2.118;2023-02-11T18:06:23;14.30;99.90
29003;DHT22;16102;57.138;-2.118;2023-02-11T18:08:50;14.20;99.90
29003;DHT22;16102;57.138;-2.118;2023-02-11T18:11:17;14.20;99.90
29003;DHT22;16102;57.138;-2.118;2023-02-11T18:13:44;14.30;99.90
29003;DHT22;16102;57.138;-2.118;2023-02-11T18:16:11;14.30;99.90
29003;DHT22;16102;57.138;-2.118;2023-02-11T18:18:42;14.30;99.90
29003;DHT22;16102;57.138;-2.118;2023-02-11T18:21:13;14.00;99.90
29003;DHT22;16102;57.138;-2.118;2023-02-11T18:23:41;13.90;99.90
29003;DHT22;16102;57.138;-2.118;2023-02-11T18:26:13;13.70;99.90
29003;DHT22;16102;57.138;-2.118;2023-02-11T18:28:40;13.80;99.90
29003;DHT22;16102;57.138;-2.118;2023-02-11T18:31:11;13.80;99.90
29003;DHT22;16102;57.138;-2.118;2023-02-11T18:33:40;13.60;99.90
29003;DHT22;16102;57.138;-2.118;2023-02-11T18:36:12;13.50;99.90
29003;DHT22;16102;57.138;-2.118;2023-02-11T18:38:40;13.40;99.90
29003;DHT22;16102;57.138;-2.118;2023-02-11T18:41:10;13.20;99.90
29003;DHT22;16102;57.138;-2.118;2023-02-11T18:43:38;13.20;99.90
29003;DHT22;16102;57.138;-2.118;2023-02-11T18:46:07;13.30;99.90
29003;DHT22;16102;57.138;-2.118;2023-02-11T18:48:35;13.30;99.90
29003;DHT22;16102;57.138;-2.118;2023-02-11T18:51:07;13.30;99.90
29003;DHT22;16102;57.138;-2.118;2023-02-11T18:53:34;13.10;99.90